Time;durP1;ratioP1;P1;durP2;ratioP2;P2;SDS_P1;SDS_P2;PMS_P1;PMS_P2;Temp;Humidity;BMP_temperature;BMP_pressure;BME280_temperature;BME280_humidity;BME280_pressure;Samples;Min_cycle;Max_cycle;Signal;HPM_P1;HPM_P2
2022/03/10 00:00:20;;;;;;;5.00;3.15;;;;;;;;;;5042975;28;20087;-73
2022/03/10 00:02:46;;;;;;;5.65;4.13;;;;;;;;;;5045638;28;20021;-73
2022/03/10 00:05:13;;;;;;;4.13;3.03;;;;;;;;;;5036437;28;20044;-74
2022/03/10 00:07:39;;;;;;;3.78;3.20;;;;;;;;;;5051412;28;20025;-74
2022/03/10 00:10:06;;;;;;;5.60;3.78;;;;;;;;;;5043490;28;20529;-73
2022/03/10 00:12:32;;;;;;;4.53;3.20;;;;;;;;;;5039025;28;20196;-73
2022/03/10 00:14:59;;;;;;;5.85;3.65;;;;;;;;;;5041587;28;20035;-73
2022/03/10 00:17:26;;;;;;;6.38;4.13;;;;;;;;;;5036316;28;20025;-73
2022/03/10 00:19:52;;;;;;;4.55;2.97;;;;;;;;;;5043077;28;20021;-76
2022/03/10 00:22:18;;;;;;;7.55;2.97;;;;;;;;;;5043509;28;20036;-74
2022/03/10 00:24:44;;;;;;;11.77;3.53;;;;;;;;;;5039731;28;20032;-74
2022/03/10 00:27:10;;;;;;;6.53;3.30;;;;;;;;;;5036781;28;20028;-74
2022/03/10 00:29:36;;;;;;;4.47;2.90;;;;;;;;;;5041712;28;20638;-75
2022/03/10 00:32:02;;;;;;;5.57;3.25;;;;;;;;;;5040893;28;20028;-75
2022/03/10 00:34:30;;;;;;;5.07;3.38;;;;;;;;;;5043257;28;20029;-76
2022/03/10 00:36:56;;;;;;;5.75;3.05;;;;;;;;;;5043473;28;20032;-76
2022/03/10 00:39:22;;;;;;;5.32;3.30;;;;;;;;;;5040949;28;20044;-75
2022/03/10 00:41:48;;;;;;;4.78;2.90;;;;;;;;;;5041101;28;20036;-75
2022/03/10 00:44:14;;;;;;;7.20;3.25;;;;;;;;;;5047587;28;20382;-76
2022/03/10 00:46:41;;;;;;;4.57;3.20;;;;;;;;;;5041946;28;20045;-76
2022/03/10 00:49:07;;;;;;;7.50;3.30;;;;;;;;;;5042792;28;20022;-75
2022/03/10 00:51:33;;;;;;;4.97;3.05;;;;;;;;;;5039830;28;20033;-76
2022/03/10 00:53:59;;;;;;;4.70;3.17;;;;;;;;;;5041568;28;20022;-76
2022/03/10 00:56:25;;;;;;;5.13;3.28;;;;;;;;;;5040959;28;20029;-75
2022/03/10 00:58:51;;;;;;;4.75;3.13;;;;;;;;;;5041717;28;20596;-76
2022/03/10 01:01:17;;;;;;;6.32;3.65;;;;;;;;;;5038723;28;20037;-76
2022/03/10 01:03:43;;;;;;;4.78;3.42;;;;;;;;;;5036364;28;20021;-76
2022/03/10 01:06:09;;;;;;;5.45;3.60;;;;;;;;;;5035367;28;20130;-75
2022/03/10 01:08:36;;;;;;;4.75;3.08;;;;;;;;;;5039024;28;20013;-75
2022/03/10 01:11:02;;;;;;;5.00;3.10;;;;;;;;;;5039220;28;20528;-75
2022/03/10 01:13:29;;;;;;;4.07;2.97;;;;;;;;;;5043123;28;20024;-75
2022/03/10 01:15:55;;;;;;;5.53;3.50;;;;;;;;;;5041333;28;20028;-75
2022/03/10 01:18:21;;;;;;;7.97;3.40;;;;;;;;;;5039454;28;20021;-74
2022/03/10 01:20:47;;;;;;;8.13;3.25;;;;;;;;;;5041075;28;20025;-75
2022/03/10 01:23:13;;;;;;;4.20;3.13;;;;;;;;;;5040432;28;20026;-75
2022/03/10 01:25:40;;;;;;;4.63;2.47;;;;;;;;;;5040216;28;20714;-74
2022/03/10 01:28:06;;;;;;;5.35;4.13;;;;;;;;;;5038282;28;20408;-75
2022/03/10 01:30:32;;;;;;;6.85;3.38;;;;;;;;;;5047620;28;20029;-74
2022/03/10 01:32:59;;;;;;;6.55;3.17;;;;;;;;;;5041111;28;20029;-74
2022/03/10 01:35:26;;;;;;;4.80;2.90;;;;;;;;;;5040378;28;20545;-74
2022/03/10 01:37:52;;;;;;;4.38;3.17;;;;;;;;;;5040612;28;20035;-74
2022/03/10 01:40:19;;;;;;;6.47;3.10;;;;;;;;;;5043185;28;20024;-74
2022/03/10 01:42:46;;;;;;;5.38;3.25;;;;;;;;;;5039709;28;20055;-74
2022/03/10 01:45:12;;;;;;;6.40;3.78;;;;;;;;;;5040649;28;20083;-74
2022/03/10 01:47:39;;;;;;;4.80;3.20;;;;;;;;;;5040025;28;20017;-75
2022/03/10 01:50:05;;;;;;;4.15;3.22;;;;;;;;;;5042845;28;20029;-74
2022/03/10 01:52:32;;;;;;;4.50;3.45;;;;;;;;;;5047009;28;20033;-75
2022/03/10 01:54:58;;;;;;;5.53;3.08;;;;;;;;;;5041299;28;20025;-75
2022/03/10 01:57:25;;;;;;;7.93;3.60;;;;;;;;;;5042817;28;20025;-74
2022/03/10 01:59:51;;;;;;;4.18;3.22;;;;;;;;;;5039466;28;20156;-74
2022/03/10 02:02:17;;;;;;;4.88;3.40;;;;;;;;;;5037654;28;20405;-74
2022/03/10 02:04:43;;;;;;;5.20;3.53;;;;;;;;;;5043536;28;20659;-73
2022/03/10 02:10:16;;;;;;;4.65;3.10;;;;;;;;;;5040051;28;20041;-73
2022/03/10 02:12:42;;;;;;;8.23;3.50;;;;;;;;;;5038902;28;20133;-74
2022/03/10 02:17:58;;;;;;;8.02;3.25;;;;;;;;;;5041513;28;20059;-74
2022/03/10 02:20:24;;;;;;;4.45;2.90;;;;;;;;;;5045006;28;20057;-74
2022/03/10 02:22:50;;;;;;;6.90;3.17;;;;;;;;;;5039537;28;20040;-74
2022/03/10 02:25:16;;;;;;;8.00;3.35;;;;;;;;;;5036359;28;20033;-74
2022/03/10 02:27:49;;;;;;;7.35;3.38;;;;;;;;;;5026361;28;20064;-75
2022/03/10 02:30:15;;;;;;;6.22;3.17;;;;;;;;;;5035809;28;20594;-75
2022/03/10 02:32:42;;;;;;;4.18;3.03;;;;;;;;;;5033840;28;20026;-75
2022/03/10 02:35:08;;;;;;;7.05;3.50;;;;;;;;;;5028895;28;20068;-74
2022/03/10 02:37:34;;;;;;;4.20;2.90;;;;;;;;;;5027057;28;20040;-74
2022/03/10 02:40:01;;;;;;;5.93;3.55;;;;;;;;;;5041324;28;20029;-74
2022/03/10 02:42:27;;;;;;;4.90;3.15;;;;;;;;;;5041434;28;20120;-74
2022/03/10 02:44:53;;;;;;;5.90;3.15;;;;;;;;;;5026013;28;20049;-74
2022/03/10 02:47:19;;;;;;;7.72;3.10;;;;;;;;;;5036260;28;20033;-74
2022/03/10 02:49:45;;;;;;;4.55;2.92;;;;;;;;;;5044133;28;20107;-74
2022/03/10 02:52:12;;;;;;;7.28;3.30;;;;;;;;;;5045914;28;20055;-74
2022/03/10 02:54:38;;;;;;;6.93;3.28;;;;;;;;;;5046000;28;20134;-74
2022/03/10 02:57:04;;;;;;;6.35;3.35;;;;;;;;;;5045393;28;20141;-74
2022/03/10 02:59:30;;;;;;;5.57;3.72;;;;;;;;;;5045705;28;20017;-74
2022/03/10 03:01:58;;;;;;;8.60;3.40;;;;;;;;;;5045051;28;20037;-74
2022/03/10 03:04:24;;;;;;;6.45;3.20;;;;;;;;;;5044383;28;20187;-74
2022/03/10 03:06:50;;;;;;;4.93;3.53;;;;;;;;;;5045455;28;20037;-75
2022/03/10 03:09:16;;;;;;;5.82;3.08;;;;;;;;;;5045231;28;20029;-74
2022/03/10 03:11:42;;;;;;;6.15;3.20;;;;;;;;;;5044814;28;20051;-74
2022/03/10 03:14:09;;;;;;;5.68;3.20;;;;;;;;;;5044139;28;20229;-74
2022/03/10 03:16:35;;;;;;;4.15;2.75;;;;;;;;;;5045168;28;20036;-74
2022/03/10 03:19:01;;;;;;;5.47;3.33;;;;;;;;;;5043456;28;20032;-74
2022/03/10 03:21:27;;;;;;;5.22;3.60;;;;;;;;;;5045335;28;20107;-74
2022/03/10 03:23:54;;;;;;;5.32;3.03;;;;;;;;;;5045098;28;20496;-75
2022/03/10 03:26:20;;;;;;;5.28;3.17;;;;;;;;;;5045194;28;20045;-74
2022/03/10 03:28:46;;;;;;;6.55;3.13;;;;;;;;;;5043779;28;20052;-74
2022/03/10 03:31:12;;;;;;;5.10;2.97;;;;;;;;;;5044593;28;20078;-74
2022/03/10 03:33:38;;;;;;;4.03;3.03;;;;;;;;;;5044892;28;20366;-74
2022/03/10 03:36:05;;;;;;;3.80;3.13;;;;;;;;;;5045036;28;20061;-74
2022/03/10 03:38:32;;;;;;;6.15;3.20;;;;;;;;;;5043371;28;20052;-74
2022/03/10 03:40:58;;;;;;;5.25;2.80;;;;;;;;;;5044801;28;20048;-74
2022/03/10 03:43:24;;;;;;;8.00;3.53;;;;;;;;;;5044845;28;20611;-74
2022/03/10 03:45:51;;;;;;;7.32;3.70;;;;;;;;;;5044437;28;20037;-74
2022/03/10 03:48:17;;;;;;;5.03;3.05;;;;;;;;;;5043240;28;20029;-74
2022/03/10 03:50:43;;;;;;;3.80;2.90;;;;;;;;;;5043448;28;20048;-74
2022/03/10 03:53:09;;;;;;;5.82;3.28;;;;;;;;;;5044529;28;20032;-74
2022/03/10 03:55:35;;;;;;;4.28;3.25;;;;;;;;;;5044388;28;20399;-74
2022/03/10 03:58:01;;;;;;;5.75;3.70;;;;;;;;;;5042747;28;20021;-75
2022/03/10 04:00:27;;;;;;;5.82;3.13;;;;;;;;;;5044295;28;20237;-74
2022/03/10 04:02:54;;;;;;;6.88;3.28;;;;;;;;;;5041349;28;20454;-73
2022/03/10 04:05:20;;;;;;;5.20;3.30;;;;;;;;;;5042310;28;20386;-74
2022/03/10 04:07:46;;;;;;;4.60;3.15;;;;;;;;;;5040253;28;20021;-75
2022/03/10 04:10:13;;;;;;;5.05;3.25;;;;;;;;;;5041532;28;20040;-74
2022/03/10 04:12:39;;;;;;;8.02;4.80;;;;;;;;;;5042083;28;20041;-74
2022/03/10 04:15:06;;;;;;;9.15;3.28;;;;;;;;;;5041663;28;20099;-74
2022/03/10 04:17:32;;;;;;;4.75;2.92;;;;;;;;;;5041757;28;20029;-74
2022/03/10 04:19:59;;;;;;;6.22;3.17;;;;;;;;;;5038678;28;20124;-74
2022/03/10 04:22:25;;;;;;;5.10;3.40;;;;;;;;;;5041080;28;20032;-74
2022/03/10 04:24:51;;;;;;;6.55;3.53;;;;;;;;;;5041548;28;20045;-74
2022/03/10 04:27:18;;;;;;;7.63;3.60;;;;;;;;;;5041282;28;20647;-75
2022/03/10 04:29:44;;;;;;;5.95;3.33;;;;;;;;;;5041634;28;20029;-75
2022/03/10 04:32:10;;;;;;;4.40;3.25;;;;;;;;;;5039994;28;20025;-75
2022/03/10 04:34:36;;;;;;;8.77;3.58;;;;;;;;;;5041334;28;20025;-75
2022/03/10 04:37:02;;;;;;;5.55;3.22;;;;;;;;;;5041531;28;20108;-74
2022/03/10 04:39:28;;;;;;;5.88;3.40;;;;;;;;;;5041539;28;20017;-74
2022/03/10 04:41:55;;;;;;;4.80;3.22;;;;;;;;;;5039995;28;20033;-74
2022/03/10 04:44:21;;;;;;;5.68;3.30;;;;;;;;;;5040880;28;20500;-75
2022/03/10 04:46:47;;;;;;;5.30;3.45;;;;;;;;;;5041050;28;20043;-75
2022/03/10 04:49:13;;;;;;;6.53;3.15;;;;;;;;;;5041076;28;20029;-74
2022/03/10 04:51:39;;;;;;;3.88;3.15;;;;;;;;;;5039867;28;20036;-74
2022/03/10 04:54:05;;;;;;;4.20;3.00;;;;;;;;;;5040964;28;20083;-74
2022/03/10 04:56:32;;;;;;;5.60;3.40;;;;;;;;;;5040683;28;20040;-74
2022/03/10 04:58:58;;;;;;;4.38;2.75;;;;;;;;;;5040546;28;20040;-74
2022/03/10 05:01:24;;;;;;;6.35;3.15;;;;;;;;;;5039124;28;20043;-75
2022/03/10 05:03:50;;;;;;;5.75;3.67;;;;;;;;;;5041271;28;20025;-74
2022/03/10 05:06:16;;;;;;;6.13;3.30;;;;;;;;;;5040803;28;20082;-74
2022/03/10 05:08:43;;;;;;;3.70;2.70;;;;;;;;;;5040022;28;20500;-74
2022/03/10 05:11:09;;;;;;;8.32;3.53;;;;;;;;;;5038905;28;20404;-74
2022/03/10 05:13:35;;;;;;;6.03;3.50;;;;;;;;;;5041009;28;20453;-74
2022/03/10 05:16:01;;;;;;;5.35;2.97;;;;;;;;;;5040293;28;20163;-74
2022/03/10 05:18:27;;;;;;;4.40;3.28;;;;;;;;;;5038808;28;20121;-75
2022/03/10 05:20:53;;;;;;;4.10;3.28;;;;;;;;;;5040219;28;20029;-74
2022/03/10 05:23:19;;;;;;;6.90;3.63;;;;;;;;;;5039156;28;20102;-74
2022/03/10 05:25:45;;;;;;;5.93;3.33;;;;;;;;;;5040539;28;20098;-75
2022/03/10 05:28:13;;;;;;;4.28;3.10;;;;;;;;;;5040588;28;20029;-74
2022/03/10 05:30:39;;;;;;;4.57;3.15;;;;;;;;;;5040585;28;20092;-74
2022/03/10 05:33:05;;;;;;;5.50;3.47;;;;;;;;;;5040187;28;20032;-74
2022/03/10 05:35:31;;;;;;;5.90;3.40;;;;;;;;;;5041017;28;20044;-74
2022/03/10 05:37:59;;;;;;;4.95;3.22;;;;;;;;;;5042218;28;20452;-74
2022/03/10 05:40:26;;;;;;;4.18;3.15;;;;;;;;;;5023347;28;20037;-74
2022/03/10 05:42:52;;;;;;;5.63;3.28;;;;;;;;;;5018042;28;20032;-75
2022/03/10 05:45:22;;;;;;;8.77;3.85;;;;;;;;;;5029190;28;20072;-74
2022/03/10 05:47:49;;;;;;;5.32;3.60;;;;;;;;;;5039898;28;20053;-74
2022/03/10 05:50:15;;;;;;;4.63;3.17;;;;;;;;;;5040712;28;20104;-75
2022/03/10 05:52:41;;;;;;;4.25;3.00;;;;;;;;;;5039843;28;20029;-74
2022/03/10 05:55:07;;;;;;;6.28;3.83;;;;;;;;;;5039801;28;20028;-75
2022/03/10 05:57:33;;;;;;;5.50;3.20;;;;;;;;;;5038784;28;20369;-74
2022/03/10 06:00:00;;;;;;;8.52;3.63;;;;;;;;;;5040278;28;20401;-74
2022/03/10 06:02:26;;;;;;;5.57;3.50;;;;;;;;;;5039509;28;20147;-74
2022/03/10 06:04:52;;;;;;;4.93;3.38;;;;;;;;;;5038307;28;20033;-75
2022/03/10 06:07:18;;;;;;;4.38;3.42;;;;;;;;;;5039859;28;20044;-74
2022/03/10 06:09:44;;;;;;;6.30;3.60;;;;;;;;;;5039976;28;20025;-74
2022/03/10 06:12:11;;;;;;;6.10;3.55;;;;;;;;;;5039390;28;20091;-74
2022/03/10 06:14:37;;;;;;;6.38;3.83;;;;;;;;;;5038912;28;20033;-75
2022/03/10 06:17:04;;;;;;;5.88;3.72;;;;;;;;;;5040096;28;20039;-74
2022/03/10 06:19:30;;;;;;;6.28;3.50;;;;;;;;;;5038235;28;20357;-74
2022/03/10 06:21:56;;;;;;;13.55;4.10;;;;;;;;;;5025866;28;20030;-73
2022/03/10 06:24:22;;;;;;;7.22;4.03;;;;;;;;;;5021545;28;20025;-74
2022/03/10 06:26:48;;;;;;;7.40;4.20;;;;;;;;;;5022210;28;20029;-73
2022/03/10 06:29:14;;;;;;;5.90;3.97;;;;;;;;;;5021665;28;20144;-74
2022/03/10 06:31:41;;;;;;;15.63;5.40;;;;;;;;;;5019730;28;20124;-74
2022/03/10 06:34:07;;;;;;;8.77;5.30;;;;;;;;;;5021203;28;20017;-74
2022/03/10 06:36:33;;;;;;;10.00;6.13;;;;;;;;;;5021570;28;20076;-74
2022/03/10 06:38:59;;;;;;;12.27;6.88;;;;;;;;;;5021324;28;20523;-74
2022/03/10 06:41:26;;;;;;;11.65;6.72;;;;;;;;;;5021807;28;20030;-77
2022/03/10 06:43:52;;;;;;;12.30;6.55;;;;;;;;;;5033776;28;20033;-76
2022/03/10 06:46:18;;;;;;;11.90;7.35;;;;;;;;;;5041320;28;20124;-74
2022/03/10 06:48:44;;;;;;;10.15;5.80;;;;;;;;;;5041393;28;20104;-74
2022/03/10 06:51:11;;;;;;;11.00;6.78;;;;;;;;;;5041558;28;20557;-74
2022/03/10 06:53:37;;;;;;;11.95;6.30;;;;;;;;;;5041380;28;20032;-74
2022/03/10 06:56:03;;;;;;;30.77;20.95;;;;;;;;;;5041265;28;20086;-74
2022/03/10 06:58:29;;;;;;;14.50;10.95;;;;;;;;;;5039288;28;20021;-74
2022/03/10 07:00:55;;;;;;;18.08;10.55;;;;;;;;;;5039575;28;20416;-74
2022/03/10 07:03:22;;;;;;;12.82;8.52;;;;;;;;;;5041299;28;20025;-73
2022/03/10 07:05:48;;;;;;;20.13;9.52;;;;;;;;;;5034602;28;20048;-74
2022/03/10 07:08:14;;;;;;;21.70;12.90;;;;;;;;;;5024395;28;20510;-74
2022/03/10 07:10:40;;;;;;;12.77;8.80;;;;;;;;;;5027935;28;20041;-74
2022/03/10 07:13:08;;;;;;;12.63;8.15;;;;;;;;;;5037059;28;20096;-74
2022/03/10 07:15:34;;;;;;;11.00;7.20;;;;;;;;;;5038783;28;20120;-74
2022/03/10 07:18:01;;;;;;;11.00;6.53;;;;;;;;;;5039435;28;20041;-74
2022/03/10 07:20:27;;;;;;;8.75;6.13;;;;;;;;;;5037701;28;20040;-75
2022/03/10 07:22:53;;;;;;;10.90;6.70;;;;;;;;;;5037357;28;20048;-75
2022/03/10 07:25:20;;;;;;;7.88;6.57;;;;;;;;;;5028943;28;20529;-75
2022/03/10 07:27:46;;;;;;;9.48;5.68;;;;;;;;;;5022664;28;20017;-74
2022/03/10 07:30:12;;;;;;;8.80;5.97;;;;;;;;;;5024484;28;20083;-74
2022/03/10 07:32:39;;;;;;;8.23;5.65;;;;;;;;;;5022393;28;20708;-74
2022/03/10 07:35:05;;;;;;;10.52;6.20;;;;;;;;;;5022881;28;20025;-74
2022/03/10 07:37:31;;;;;;;5.40;4.55;;;;;;;;;;5025532;28;20021;-75
2022/03/10 07:39:57;;;;;;;6.05;3.80;;;;;;;;;;5042709;28;20033;-74
2022/03/10 07:42:23;;;;;;;5.55;3.17;;;;;;;;;;5041071;28;20087;-74
2022/03/10 07:44:50;;;;;;;6.07;3.65;;;;;;;;;;5042426;28;20121;-74
2022/03/10 07:47:16;;;;;;;6.30;3.00;;;;;;;;;;5040222;28;20028;-75
2022/03/10 07:49:42;;;;;;;4.20;3.22;;;;;;;;;;5042381;28;20135;-75
2022/03/10 07:52:08;;;;;;;4.65;3.25;;;;;;;;;;5041301;28;20025;-74
2022/03/10 07:54:34;;;;;;;5.53;3.50;;;;;;;;;;5043588;28;20044;-75
2022/03/10 07:57:01;;;;;;;5.85;3.63;;;;;;;;;;5045030;28;20539;-73
2022/03/10 07:59:27;;;;;;;6.07;3.75;;;;;;;;;;5042439;28;20047;-77
2022/03/10 08:01:54;;;;;;;5.88;3.55;;;;;;;;;;5040747;28;20027;-77
2022/03/10 08:04:20;;;;;;;6.32;3.50;;;;;;;;;;5041812;28;20033;-75
2022/03/10 08:06:47;;;;;;;5.50;3.25;;;;;;;;;;5040200;28;20045;-74
2022/03/10 08:09:13;;;;;;;5.65;3.53;;;;;;;;;;5042137;28;20036;-75
2022/03/10 08:11:39;;;;;;;3.72;3.00;;;;;;;;;;5041897;28;20052;-75
2022/03/10 08:14:06;;;;;;;4.45;2.85;;;;;;;;;;5042309;28;20048;-74
2022/03/10 08:16:33;;;;;;;4.20;3.22;;;;;;;;;;5038319;28;20017;-75
2022/03/10 08:18:59;;;;;;;6.82;3.55;;;;;;;;;;5037437;28;20545;-76
2022/03/10 08:21:28;;;;;;;5.20;3.08;;;;;;;;;;5041730;28;20599;-75
2022/03/10 08:23:55;;;;;;;4.13;3.03;;;;;;;;;;5031303;28;20152;-75
2022/03/10 08:26:22;;;;;;;6.20;3.58;;;;;;;;;;5034580;28;20037;-75
2022/03/10 08:28:51;;;;;;;5.78;3.35;;;;;;;;;;5037534;28;20028;-74
2022/03/10 08:31:18;;;;;;;5.38;3.33;;;;;;;;;;5031840;28;20033;-74
2022/03/10 08:33:44;;;;;;;4.72;3.35;;;;;;;;;;5035756;28;20032;-74
2022/03/10 08:36:11;;;;;;;4.95;3.30;;;;;;;;;;5022085;28;20057;-75
2022/03/10 08:38:37;;;;;;;4.97;3.03;;;;;;;;;;5038834;28;20036;-76
2022/03/10 08:41:04;;;;;;;4.38;3.00;;;;;;;;;;5035199;28;20033;-75
2022/03/10 08:43:31;;;;;;;5.15;3.58;;;;;;;;;;5029590;28;20028;-76
2022/03/10 08:45:57;;;;;;;6.05;3.35;;;;;;;;;;5032060;28;20608;-76
2022/03/10 08:48:24;;;;;;;5.55;3.03;;;;;;;;;;5035621;28;20022;-75
2022/03/10 08:50:50;;;;;;;5.35;3.35;;;;;;;;;;5021420;28;20079;-75
2022/03/10 08:53:17;;;;;;;4.28;3.03;;;;;;;;;;5028413;28;20102;-75
2022/03/10 08:55:44;;;;;;;5.53;2.90;;;;;;;;;;5035751;28;20520;-79
2022/03/10 08:58:10;;;;;;;3.72;2.85;;;;;;;;;;5042833;28;20032;-78
2022/03/10 09:00:37;;;;;;;4.95;2.97;;;;;;;;;;5042042;28;20020;-77
2022/03/10 09:03:03;;;;;;;4.35;2.80;;;;;;;;;;5039722;28;20029;-74
2022/03/10 09:05:29;;;;;;;6.38;3.97;;;;;;;;;;5042037;28;20031;-77
2022/03/10 09:07:56;;;;;;;3.90;3.17;;;;;;;;;;5041486;28;20063;-77
2022/03/10 09:10:22;;;;;;;4.75;2.70;;;;;;;;;;5038405;28;20033;-76
2022/03/10 09:12:48;;;;;;;5.22;3.25;;;;;;;;;;5040852;28;20033;-77
2022/03/10 09:15:16;;;;;;;5.45;3.42;;;;;;;;;;5041712;28;20078;-77
2022/03/10 09:17:42;;;;;;;5.90;2.95;;;;;;;;;;5039219;28;20029;-77
2022/03/10 09:20:10;;;;;;;3.65;2.63;;;;;;;;;;5041203;28;20027;-76
2022/03/10 09:22:36;;;;;;;6.80;3.33;;;;;;;;;;5062142;28;20024;-76
2022/03/10 09:25:05;;;;;;;5.97;3.53;;;;;;;;;;5048423;28;20024;-76
2022/03/10 09:27:32;;;;;;;6.80;4.40;;;;;;;;;;5040476;28;20369;-78
2022/03/10 09:29:58;;;;;;;5.22;4.28;;;;;;;;;;5039893;28;20032;-77
2022/03/10 09:32:24;;;;;;;6.18;4.28;;;;;;;;;;5025854;28;20112;-76
2022/03/10 09:34:50;;;;;;;5.65;3.75;;;;;;;;;;5038903;28;20086;-77
2022/03/10 09:37:17;;;;;;;7.30;3.80;;;;;;;;;;5040048;28;20039;-78
2022/03/10 09:39:43;;;;;;;5.60;3.60;;;;;;;;;;5030645;28;20108;-76
2022/03/10 09:42:09;;;;;;;5.10;3.85;;;;;;;;;;5039411;28;20063;-78
2022/03/10 09:44:36;;;;;;;5.07;3.63;;;;;;;;;;5041030;28;20472;-77
2022/03/10 09:47:03;;;;;;;5.15;3.60;;;;;;;;;;5040957;28;20032;-75
2022/03/10 09:49:33;;;;;;;4.43;3.20;;;;;;;;;;5041064;28;20017;-77
2022/03/10 09:51:59;;;;;;;5.00;3.15;;;;;;;;;;5040513;28;20025;-78
2022/03/10 09:54:26;;;;;;;3.90;2.88;;;;;;;;;;5041251;28;20507;-76
2022/03/10 09:56:52;;;;;;;5.05;3.17;;;;;;;;;;5039194;28;20041;-76
2022/03/10 09:59:22;;;;;;;5.63;2.85;;;;;;;;;;5040542;28;20009;-78
2022/03/10 10:01:49;;;;;;;4.35;3.30;;;;;;;;;;5041406;28;20024;-77
2022/03/10 10:04:15;;;;;;;5.85;3.17;;;;;;;;;;5041843;28;20040;-77
2022/03/10 10:07:01;;;;;;;5.30;3.40;;;;;;;;;;5040712;28;20780;-76
2022/03/10 10:10:02;;;;;;;4.70;2.92;;;;;;;;;;5040282;28;20807;-76
2022/03/10 10:12:30;;;;;;;7.37;3.20;;;;;;;;;;4994234;28;20100;-76
2022/03/10 10:15:00;;;;;;;4.28;3.20;;;;;;;;;;5020089;28;20068;-80
2022/03/10 10:17:30;;;;;;;3.65;2.80;;;;;;;;;;5037188;28;20404;-75
2022/03/10 10:19:58;;;;;;;4.72;3.30;;;;;;;;;;5045983;28;20086;-78
2022/03/10 10:22:25;;;;;;;5.10;2.92;;;;;;;;;;5040746;28;20025;-77
2022/03/10 10:24:53;;;;;;;4.50;3.22;;;;;;;;;;5039885;28;20033;-77
2022/03/10 10:27:23;;;;;;;5.20;3.70;;;;;;;;;;5041327;28;20045;-75
2022/03/10 10:29:49;;;;;;;4.25;3.45;;;;;;;;;;5039580;28;20040;-76
2022/03/10 10:32:27;;;;;;;8.27;3.50;;;;;;;;;;5041102;28;20021;-76
2022/03/10 10:34:59;;;;;;;5.68;3.45;;;;;;;;;;5041719;28;20017;-76
2022/03/10 10:37:25;;;;;;;5.65;3.28;;;;;;;;;;5041512;28;20021;-76
2022/03/10 10:39:58;;;;;;;5.50;3.13;;;;;;;;;;5041313;28;20029;-76
2022/03/10 10:42:31;;;;;;;5.30;3.47;;;;;;;;;;5041446;28;20037;-76
2022/03/10 10:45:01;;;;;;;5.10;2.92;;;;;;;;;;5039647;28;20029;-77
2022/03/10 10:47:28;;;;;;;6.43;3.53;;;;;;;;;;5036089;28;20497;-77
2022/03/10 10:50:01;;;;;;;6.82;3.95;;;;;;;;;;5020049;28;20033;-78
2022/03/10 10:52:37;;;;;;;6.50;3.60;;;;;;;;;;5017296;28;20068;-78
2022/03/10 10:55:05;;;;;;;4.15;3.15;;;;;;;;;;5021220;28;20115;-76
2022/03/10 10:57:34;;;;;;;5.25;3.63;;;;;;;;;;5021499;28;20033;-77
2022/03/10 11:00:13;;;;;;;5.13;4.10;;;;;;;;;;5023742;28;20458;-76
2022/03/10 11:02:43;;;;;;;4.22;3.60;;;;;;;;;;5024829;28;20565;-76
2022/03/10 11:05:11;;;;;;;6.20;3.72;;;;;;;;;;5023941;28;20048;-77
2022/03/10 11:07:39;;;;;;;8.27;3.92;;;;;;;;;;5025153;28;20018;-77
2022/03/10 11:10:07;;;;;;;13.35;4.18;;;;;;;;;;5025274;28;20033;-76
2022/03/10 11:12:39;;;;;;;7.18;3.90;;;;;;;;;;5024586;28;20045;-77
2022/03/10 11:15:07;;;;;;;8.20;4.22;;;;;;;;;;5023516;28;20931;-78
2022/03/10 11:17:34;;;;;;;5.18;3.28;;;;;;;;;;5024706;28;20420;-77
2022/03/10 11:20:01;;;;;;;9.68;4.38;;;;;;;;;;5041169;28;20110;-76
2022/03/10 11:22:30;;;;;;;8.70;3.83;;;;;;;;;;5044158;28;20036;-75
2022/03/10 11:24:56;;;;;;;6.57;3.58;;;;;;;;;;5042582;28;20120;-74
2022/03/10 11:27:28;;;;;;;4.93;3.50;;;;;;;;;;5044365;28;20477;-79
2022/03/10 11:29:54;;;;;;;;;;;;;;;;;;5045107;28;20489;-75
2022/03/10 11:32:29;;;;;;;7.70;3.95;;;;;;;;;;5046915;28;19919;-77
2022/03/10 11:35:01;;;;;;;22.73;6.00;;;;;;;;;;5047616;28;20056;-79
2022/03/10 11:37:58;;;;;;;9.85;4.65;;;;;;;;;;5042687;28;20021;-79
2022/03/10 11:40:42;;;;;;;5.65;3.90;;;;;;;;;;5043718;28;20643;-79
2022/03/10 11:43:09;;;;;;;11.45;3.92;;;;;;;;;;5042621;28;20043;-80
2022/03/10 11:45:35;;;;;;;6.90;4.35;;;;;;;;;;5038402;28;20026;-76
2022/03/10 11:48:20;;;;;;;4.50;3.45;;;;;;;;;;5041386;28;20053;-76
2022/03/10 11:50:46;;;;;;;5.70;3.97;;;;;;;;;;5040795;28;20036;-75
2022/03/10 11:53:12;;;;;;;5.57;4.00;;;;;;;;;;5042109;28;20033;-77
2022/03/10 11:55:48;;;;;;;7.00;3.55;;;;;;;;;;5041826;28;20044;-76
2022/03/10 11:58:14;;;;;;;6.90;4.20;;;;;;;;;;5041617;28;20178;-77
2022/03/10 12:00:44;;;;;;;5.80;4.07;;;;;;;;;;5040322;28;20120;-76
2022/03/10 12:03:10;;;;;;;4.72;3.60;;;;;;;;;;5041527;28;20468;-77
2022/03/10 12:05:57;;;;;;;5.72;3.97;;;;;;;;;;5041899;28;20039;-77
2022/03/10 12:08:25;;;;;;;8.82;4.88;;;;;;;;;;5039786;28;20239;-75
2022/03/10 12:10:51;;;;;;;6.45;3.88;;;;;;;;;;5040412;28;20049;-76
2022/03/10 12:13:26;;;;;;;7.47;3.78;;;;;;;;;;5042437;28;20849;-76
2022/03/10 12:15:52;;;;;;;5.20;3.58;;;;;;;;;;5040786;28;20025;-76
2022/03/10 12:18:42;;;;;;;5.43;3.60;;;;;;;;;;5041968;28;20077;-76
2022/03/10 12:21:18;;;;;;;4.78;3.53;;;;;;;;;;5034563;28;20037;-76
2022/03/10 12:23:56;;;;;;;5.40;3.67;;;;;;;;;;5041485;28;20028;-76
2022/03/10 12:26:33;;;;;;;5.18;4.68;;;;;;;;;;5041451;28;20068;-75
2022/03/10 12:29:10;;;;;;;5.95;3.95;;;;;;;;;;5041495;28;20093;-75
2022/03/10 12:31:37;;;;;;;5.63;3.80;;;;;;;;;;5042200;28;20655;-76
2022/03/10 12:34:06;;;;;;;10.43;4.57;;;;;;;;;;5039375;28;20040;-76
2022/03/10 12:36:38;;;;;;;8.10;4.15;;;;;;;;;;5041556;28;20114;-74
2022/03/10 12:39:14;;;;;;;15.45;4.40;;;;;;;;;;5038889;28;20476;-75
2022/03/10 12:41:42;;;;;;;6.90;4.15;;;;;;;;;;5041331;28;20033;-76
2022/03/10 12:44:10;;;;;;;6.38;4.07;;;;;;;;;;5040195;28;20481;-76
2022/03/10 12:46:37;;;;;;;5.90;4.45;;;;;;;;;;5040105;28;20037;-75
2022/03/10 12:49:05;;;;;;;8.50;4.63;;;;;;;;;;5041077;28;20031;-75
2022/03/10 12:51:33;;;;;;;5.85;3.80;;;;;;;;;;5041246;28;20091;-75
2022/03/10 12:54:00;;;;;;;7.88;4.05;;;;;;;;;;5039245;28;20025;-76
2022/03/10 12:56:26;;;;;;;7.32;4.93;;;;;;;;;;5040696;28;20055;-75
2022/03/10 12:58:53;;;;;;;5.70;4.25;;;;;;;;;;5040250;28;20101;-76
2022/03/10 13:01:20;;;;;;;6.15;4.53;;;;;;;;;;5040411;28;20177;-76
2022/03/10 13:03:53;;;;;;;6.25;4.28;;;;;;;;;;5040440;28;20029;-76
2022/03/10 13:06:21;;;;;;;11.27;4.60;;;;;;;;;;5040782;28;20095;-75
2022/03/10 13:08:55;;;;;;;6.45;4.50;;;;;;;;;;5038255;28;20382;-75
2022/03/10 13:11:25;;;;;;;8.23;4.00;;;;;;;;;;5040257;28;20045;-74
2022/03/10 13:14:02;;;;;;;5.38;4.20;;;;;;;;;;5040763;28;20060;-75
2022/03/10 13:16:33;;;;;;;7.07;3.85;;;;;;;;;;5040458;28;20029;-76
2022/03/10 13:18:59;;;;;;;7.47;4.05;;;;;;;;;;5040069;28;20059;-76
2022/03/10 13:21:25;;;;;;;5.45;4.00;;;;;;;;;;5038427;28;20087;-76
2022/03/10 13:23:52;;;;;;;5.65;4.25;;;;;;;;;;5040363;28;20032;-76
2022/03/10 13:26:24;;;;;;;6.18;3.88;;;;;;;;;;5040383;28;20673;-76
2022/03/10 13:28:51;;;;;;;8.10;3.67;;;;;;;;;;5040371;28;20025;-76
2022/03/10 13:31:18;;;;;;;5.78;4.00;;;;;;;;;;5038846;28;20115;-75
2022/03/10 13:33:44;;;;;;;5.30;3.80;;;;;;;;;;5039661;28;20505;-75
2022/03/10 13:36:11;;;;;;;6.15;3.63;;;;;;;;;;5038519;28;20515;-75
2022/03/10 13:38:38;;;;;;;5.10;3.70;;;;;;;;;;5038250;28;20025;-76
2022/03/10 13:41:05;;;;;;;5.15;3.83;;;;;;;;;;5039898;28;20033;-75
2022/03/10 13:43:38;;;;;;;6.63;3.95;;;;;;;;;;5039524;28;20029;-76
2022/03/10 13:46:12;;;;;;;6.80;4.32;;;;;;;;;;5038425;28;20049;-75
2022/03/10 13:49:00;;;;;;;5.25;3.90;;;;;;;;;;5040614;28;20021;-75
2022/03/10 13:51:28;;;;;;;5.32;3.70;;;;;;;;;;5039729;28;20107;-75
2022/03/10 13:53:55;;;;;;;5.32;3.88;;;;;;;;;;5039219;28;20033;-76
2022/03/10 13:56:31;;;;;;;5.22;3.60;;;;;;;;;;5040089;28;20385;-75
2022/03/10 13:58:57;;;;;;;5.10;3.83;;;;;;;;;;5037897;28;20067;-75
2022/03/10 14:01:27;;;;;;;9.13;3.85;;;;;;;;;;5039797;28;20036;-75
2022/03/10 14:03:54;;;;;;;6.45;3.70;;;;;;;;;;5039635;28;20029;-75
2022/03/10 14:06:20;;;;;;;7.18;4.55;;;;;;;;;;5039299;28;20048;-74
2022/03/10 14:08:51;;;;;;;7.70;4.00;;;;;;;;;;5037825;28;20495;-75
2022/03/10 14:11:19;;;;;;;6.78;4.05;;;;;;;;;;5039252;28;20508;-76
2022/03/10 14:13:47;;;;;;;6.13;3.88;;;;;;;;;;5039796;28;20028;-76
2022/03/10 14:16:15;;;;;;;7.63;4.25;;;;;;;;;;5038222;28;20040;-74
2022/03/10 14:18:48;;;;;;;6.65;3.88;;;;;;;;;;5039088;28;20021;-74
2022/03/10 14:21:15;;;;;;;6.05;4.07;;;;;;;;;;5038854;28;20566;-75
2022/03/10 14:23:42;;;;;;;4.78;3.65;;;;;;;;;;5038090;28;20043;-75
2022/03/10 14:26:16;;;;;;;6.50;3.85;;;;;;;;;;5039257;28;20033;-75
2022/03/10 14:28:47;;;;;;;6.43;4.45;;;;;;;;;;5039212;28;20021;-75
2022/03/10 14:31:22;;;;;;;6.57;3.92;;;;;;;;;;5039373;28;20060;-76
2022/03/10 14:33:50;;;;;;;7.10;4.43;;;;;;;;;;5039648;28;20025;-76
2022/03/10 14:36:20;;;;;;;7.22;4.28;;;;;;;;;;5043462;28;20036;-75
2022/03/10 14:38:47;;;;;;;6.85;4.43;;;;;;;;;;5037196;28;20056;-76
2022/03/10 14:41:20;;;;;;;6.85;4.22;;;;;;;;;;5043348;28;20032;-74
2022/03/10 14:43:47;;;;;;;6.75;3.80;;;;;;;;;;5042756;28;20025;-76
2022/03/10 14:46:13;;;;;;;7.95;4.20;;;;;;;;;;5041881;28;20160;-76
2022/03/10 14:48:40;;;;;;;9.73;4.57;;;;;;;;;;5041403;28;20028;-75
2022/03/10 14:51:06;;;;;;;6.82;3.95;;;;;;;;;;5041818;28;20029;-75